sensor_id;sensor_type;location;lat;lon;timestamp;pressure;altitude;pressure_sealevel;temperature;humidity
20019;BME280;10170;42.502;26.526;2023-01-28T00:01:16;98938.88;;;4.88;100.00
20019;BME280;10170;42.502;26.526;2023-01-28T00:03:43;98952.56;;;4.77;100.00
20019;BME280;10170;42.502;26.526;2023-01-28T00:06:12;98959.28;;;4.65;100.00
20019;BME280;10170;42.502;26.526;2023-01-28T00:08:40;98965.63;;;4.70;100.00
20019;BME280;10170;42.502;26.526;2023-01-28T00:11:10;98959.97;;;4.73;100.00
20019;BME280;10170;42.502;26.526;2023-01-28T00:13:37;98967.53;;;4.76;100.00
20019;BME280;10170;42.502;26.526;2023-01-28T00:16:05;98962.13;;;4.49;100.00
20019;BME280;10170;42.502;26.526;2023-01-28T00:18:36;98974.84;;;4.30;100.00
20019;BME280;10170;42.502;26.526;2023-01-28T00:21:08;98977.03;;;4.27;100.00
20019;BME280;10170;42.502;26.526;2023-01-28T00:23:37;98982.66;;;4.24;100.00
20019;BME280;10170;42.502;26.526;2023-01-28T00:26:10;98973.66;;;4.48;100.00
20019;BME280;10170;42.502;26.526;2023-01-28T00:28:38;98980.56;;;4.49;100.00
20019;BME280;10170;42.502;26.526;2023-01-28T00:31:09;98951.28;;;4.08;100.00
20019;BME280;10170;42.502;26.526;2023-01-28T00:33:36;98985.75;;;4.13;100.00
20019;BME280;10170;42.502;26.526;2023-01-28T00:36:04;98965.31;;;4.00;100.00
20019;BME280;10170;42.502;26.526;2023-01-28T00:38:32;98993.25;;;4.16;100.00
20019;BME280;10170;42.502;26.526;2023-01-28T00:41:14;98994.81;;;4.25;100.00
20019;BME280;10170;42.502;26.526;2023-01-28T00:43:42;98971.78;;;3.98;100.00
20019;BME280;10170;42.502;26.526;2023-01-28T00:46:11;99000.09;;;4.10;100.00
20019;BME280;10170;42.502;26.526;2023-01-28T00:48:39;99001.16;;;4.01;100.00
20019;BME280;10170;42.502;26.526;2023-01-28T00:51:07;98999.44;;;3.94;100.00
20019;BME280;10170;42.502;26.526;2023-01-28T00:53:35;98995.44;;;3.98;100.00
20019;BME280;10170;42.502;26.526;2023-01-28T00:56:06;99004.97;;;3.99;100.00
20019;BME280;10170;42.502;26.526;2023-01-28T00:58:33;98998.41;;;3.95;100.00
20019;BME280;10170;42.502;26.526;2023-01-28T01:01:28;99005.84;;;3.91;100.00
20019;BME280;10170;42.502;26.526;2023-01-28T01:03:55;99003.03;;;3.93;100.00
20019;BME280;10170;42.502;26.526;2023-01-28T01:06:31;98965.47;;;3.70;100.00
20019;BME280;10170;42.502;26.526;2023-01-28T01:08:58;99004.13;;;3.98;100.00
20019;BME280;10170;42.502;26.526;2023-01-28T01:11:25;99008.97;;;4.09;100.00
20019;BME280;10170;42.502;26.526;2023-01-28T01:13:54;99009.94;;;3.94;100.00
20019;BME280;10170;42.502;26.526;2023-01-28T01:16:25;99002.94;;;3.86;100.00
20019;BME280;10170;42.502;26.526;2023-01-28T01:18:52;99014.38;;;3.93;100.00
20019;BME280;10170;42.502;26.526;2023-01-28T01:21:22;99007.59;;;3.99;100.00
20019;BME280;10170;42.502;26.526;2023-01-28T01:23:50;99017.84;;;3.94;100.00
20019;BME280;10170;42.502;26.526;2023-01-28T01:26:17;99017.38;;;3.90;100.00
20019;BME280;10170;42.502;26.526;2023-01-28T01:28:44;99013.47;;;3.86;100.00
20019;BME280;10170;42.502;26.526;2023-01-28T01:31:13;99011.53;;;3.80;100.00
20019;BME280;10170;42.502;26.526;2023-01-28T01:33:41;99007.06;;;3.66;100.00
20019;BME280;10170;42.502;26.526;2023-01-28T01:36:10;99007.84;;;3.52;100.00
20019;BME280;10170;42.502;26.526;2023-01-28T01:38:37;99013.81;;;3.46;100.00
20019;BME280;10170;42.502;26.526;2023-01-28T01:41:04;99008.25;;;3.41;100.00
20019;BME280;10170;42.502;26.526;2023-01-28T01:43:51;99030.56;;;3.45;100.00
20019;BME280;10170;42.502;26.526;2023-01-28T01:46:25;99031.22;;;3.47;100.00
20019;BME280;10170;42.502;26.526;2023-01-28T01:48:54;99027.25;;;3.51;100.00
20019;BME280;10170;42.502;26.526;2023-01-28T01:51:26;99022.03;;;3.43;100.00
20019;BME280;10170;42.502;26.526;2023-01-28T01:53:56;99040.44;;;3.43;100.00
20019;BME280;10170;42.502;26.526;2023-01-28T01:56:29;99036.06;;;3.36;100.00
20019;BME280;10170;42.502;26.526;2023-01-28T01:58:58;99039.50;;;3.36;100.00
20019;BME280;10170;42.502;26.526;2023-01-28T02:01:28;99039.09;;;3.47;100.00
20019;BME280;10170;42.502;26.526;2023-01-28T02:04:09;99034.81;;;3.46;100.00
20019;BME280;10170;42.502;26.526;2023-01-28T02:06:39;99046.50;;;3.44;100.00
20019;BME280;10170;42.502;26.526;2023-01-28T02:11:47;99041.78;;;3.39;100.00
20019;BME280;10170;42.502;26.526;2023-01-28T02:14:14;99034.59;;;3.33;100.00
20019;BME280;10170;42.502;26.526;2023-01-28T02:16:56;99047.09;;;3.31;100.00
20019;BME280;10170;42.502;26.526;2023-01-28T02:19:26;99043.00;;;3.29;100.00
20019;BME280;10170;42.502;26.526;2023-01-28T02:22:05;99040.72;;;3.26;100.00
20019;BME280;10170;42.502;26.526;2023-01-28T02:27:33;99041.22;;;3.21;100.00
20019;BME280;10170;42.502;26.526;2023-01-28T02:32:43;99041.22;;;3.21;100.00
20019;BME280;10170;42.502;26.526;2023-01-28T02:35:27;99040.44;;;3.20;100.00
20019;BME280;10170;42.502;26.526;2023-01-28T02:38:06;99042.06;;;3.21;100.00
20019;BME280;10170;42.502;26.526;2023-01-28T02:40:38;99044.00;;;3.28;100.00
20019;BME280;10170;42.502;26.526;2023-01-28T02:43:41;99018.59;;;3.20;100.00
20019;BME280;10170;42.502;26.526;2023-01-28T02:49:19;99041.13;;;3.37;100.00
20019;BME280;10170;42.502;26.526;2023-01-28T02:52:03;99039.97;;;3.40;100.00
20019;BME280;10170;42.502;26.526;2023-01-28T02:54:41;99043.94;;;3.36;100.00
20019;BME280;10170;42.502;26.526;2023-01-28T03:02:49;99048.88;;;3.76;100.00
20019;BME280;10170;42.502;26.526;2023-01-28T03:05:30;99056.03;;;3.67;100.00
20019;BME280;10170;42.502;26.526;2023-01-28T03:07:58;99056.59;;;3.77;100.00
20019;BME280;10170;42.502;26.526;2023-01-28T03:10:26;99062.34;;;3.95;100.00
20019;BME280;10170;42.502;26.526;2023-01-28T03:12:55;99060.25;;;3.91;100.00
20019;BME280;10170;42.502;26.526;2023-01-28T03:15:46;99062.91;;;4.05;100.00
20019;BME280;10170;42.502;26.526;2023-01-28T03:18:43;99057.91;;;3.96;100.00
20019;BME280;10170;42.502;26.526;2023-01-28T03:21:33;99053.38;;;3.90;100.00
20019;BME280;10170;42.502;26.526;2023-01-28T03:24:22;99053.59;;;3.80;100.00
20019;BME280;10170;42.502;26.526;2023-01-28T03:27:13;99062.03;;;3.76;100.00
20019;BME280;10170;42.502;26.526;2023-01-28T03:30:48;99051.75;;;3.66;100.00
20019;BME280;10170;42.502;26.526;2023-01-28T03:33:13;99058.78;;;3.51;100.00
20019;BME280;10170;42.502;26.526;2023-01-28T03:35:59;99062.56;;;3.49;100.00
20019;BME280;10170;42.502;26.526;2023-01-28T03:38:46;99060.63;;;3.43;100.00
20019;BME280;10170;42.502;26.526;2023-01-28T03:41:21;99066.81;;;3.50;100.00
20019;BME280;10170;42.502;26.526;2023-01-28T03:43:49;99063.22;;;3.51;100.00
20019;BME280;10170;42.502;26.526;2023-01-28T03:46:16;99066.88;;;3.64;100.00
20019;BME280;10170;42.502;26.526;2023-01-28T03:48:44;99079.69;;;3.67;100.00
20019;BME280;10170;42.502;26.526;2023-01-28T03:51:11;99083.13;;;3.68;100.00
20019;BME280;10170;42.502;26.526;2023-01-28T03:53:38;99076.28;;;3.59;100.00
20019;BME280;10170;42.502;26.526;2023-01-28T03:56:06;99097.44;;;3.65;100.00
20019;BME280;10170;42.502;26.526;2023-01-28T03:58:33;99096.38;;;3.74;100.00
20019;BME280;10170;42.502;26.526;2023-01-28T04:01:12;99089.75;;;3.78;100.00
20019;BME280;10170;42.502;26.526;2023-01-28T04:03:39;99110.47;;;3.81;100.00
20019;BME280;10170;42.502;26.526;2023-01-28T04:06:08;99110.38;;;3.89;100.00
20019;BME280;10170;42.502;26.526;2023-01-28T04:08:35;99118.41;;;3.73;100.00
20019;BME280;10170;42.502;26.526;2023-01-28T04:11:02;99117.47;;;3.89;100.00
20019;BME280;10170;42.502;26.526;2023-01-28T04:13:41;99112.38;;;3.65;100.00
20019;BME280;10170;42.502;26.526;2023-01-28T04:16:12;99129.56;;;3.75;100.00
20019;BME280;10170;42.502;26.526;2023-01-28T04:18:40;99127.09;;;3.51;100.00
20019;BME280;10170;42.502;26.526;2023-01-28T04:21:06;99131.91;;;3.48;100.00
20019;BME280;10170;42.502;26.526;2023-01-28T04:23:34;99126.34;;;3.65;100.00
20019;BME280;10170;42.502;26.526;2023-01-28T04:26:00;99141.84;;;3.60;100.00
20019;BME280;10170;42.502;26.526;2023-01-28T04:28:27;99140.47;;;3.64;100.00
20019;BME280;10170;42.502;26.526;2023-01-28T04:30:54;99138.41;;;3.52;100.00
20019;BME280;10170;42.502;26.526;2023-01-28T04:33:21;99116.38;;;3.30;100.00
20019;BME280;10170;42.502;26.526;2023-01-28T04:35:48;99139.81;;;3.40;100.00
20019;BME280;10170;42.502;26.526;2023-01-28T04:38:15;98994.09;;;2.36;100.00
20019;BME280;10170;42.502;26.526;2023-01-28T04:40:41;99152.47;;;3.36;100.00
20019;BME280;10170;42.502;26.526;2023-01-28T04:43:08;99154.09;;;3.37;100.00
20019;BME280;10170;42.502;26.526;2023-01-28T04:45:35;99148.44;;;3.48;100.00
20019;BME280;10170;42.502;26.526;2023-01-28T04:48:02;99158.38;;;3.69;100.00
20019;BME280;10170;42.502;26.526;2023-01-28T04:50:28;99161.94;;;3.76;100.00
20019;BME280;10170;42.502;26.526;2023-01-28T04:52:55;99172.81;;;3.73;100.00
20019;BME280;10170;42.502;26.526;2023-01-28T04:55:22;99111.03;;;3.15;100.00
20019;BME280;10170;42.502;26.526;2023-01-28T04:57:48;99168.16;;;3.52;100.00
20019;BME280;10170;42.502;26.526;2023-01-28T05:00:15;99178.00;;;3.50;100.00
20019;BME280;10170;42.502;26.526;2023-01-28T05:02:42;99173.47;;;3.44;100.00
20019;BME280;10170;42.502;26.526;2023-01-28T05:05:09;99188.66;;;3.57;100.00
20019;BME280;10170;42.502;26.526;2023-01-28T05:07:36;99191.59;;;3.62;100.00
20019;BME280;10170;42.502;26.526;2023-01-28T05:10:03;99190.66;;;3.55;100.00
20019;BME280;10170;42.502;26.526;2023-01-28T05:12:31;99195.44;;;3.51;100.00
20019;BME280;10170;42.502;26.526;2023-01-28T05:14:59;99193.84;;;3.73;100.00
20019;BME280;10170;42.502;26.526;2023-01-28T05:17:27;99199.97;;;3.88;100.00
20019;BME280;10170;42.502;26.526;2023-01-28T05:19:54;99162.50;;;3.63;100.00
20019;BME280;10170;42.502;26.526;2023-01-28T05:22:20;99207.69;;;3.89;100.00
20019;BME280;10170;42.502;26.526;2023-01-28T05:24:47;99211.22;;;3.74;100.00
20019;BME280;10170;42.502;26.526;2023-01-28T05:27:14;99220.03;;;3.89;100.00
20019;BME280;10170;42.502;26.526;2023-01-28T05:29:41;99230.06;;;3.85;100.00
20019;BME280;10170;42.502;26.526;2023-01-28T05:32:07;99219.03;;;3.90;100.00
20019;BME280;10170;42.502;26.526;2023-01-28T05:34:34;99231.41;;;4.04;100.00
20019;BME280;10170;42.502;26.526;2023-01-28T05:37:01;99227.06;;;4.19;100.00
20019;BME280;10170;42.502;26.526;2023-01-28T05:39:27;99235.06;;;4.25;100.00
20019;BME280;10170;42.502;26.526;2023-01-28T05:41:54;99245.09;;;4.22;100.00
20019;BME280;10170;42.502;26.526;2023-01-28T05:44:21;99240.50;;;4.24;100.00
20019;BME280;10170;42.502;26.526;2023-01-28T05:46:48;99234.19;;;4.33;100.00
20019;BME280;10170;42.502;26.526;2023-01-28T05:49:14;99242.91;;;3.80;100.00
20019;BME280;10170;42.502;26.526;2023-01-28T05:51:42;99233.41;;;3.71;100.00
20019;BME280;10170;42.502;26.526;2023-01-28T05:54:09;99248.06;;;3.96;100.00
20019;BME280;10170;42.502;26.526;2023-01-28T05:56:36;99250.53;;;3.98;100.00
20019;BME280;10170;42.502;26.526;2023-01-28T05:59:03;99240.06;;;3.90;100.00
20019;BME280;10170;42.502;26.526;2023-01-28T06:01:30;99255.81;;;3.98;100.00
20019;BME280;10170;42.502;26.526;2023-01-28T06:03:57;99261.09;;;3.90;100.00
20019;BME280;10170;42.502;26.526;2023-01-28T06:06:24;99265.81;;;3.94;100.00
20019;BME280;10170;42.502;26.526;2023-01-28T06:08:51;99257.59;;;3.97;100.00
20019;BME280;10170;42.502;26.526;2023-01-28T06:11:17;99268.53;;;4.09;100.00
20019;BME280;10170;42.502;26.526;2023-01-28T06:13:45;99271.19;;;4.32;100.00
20019;BME280;10170;42.502;26.526;2023-01-28T06:16:12;99261.13;;;4.35;100.00
20019;BME280;10170;42.502;26.526;2023-01-28T06:18:38;99263.41;;;4.38;100.00
20019;BME280;10170;42.502;26.526;2023-01-28T06:21:07;99286.09;;;4.16;100.00
20019;BME280;10170;42.502;26.526;2023-01-28T06:23:33;99291.09;;;4.03;100.00
20019;BME280;10170;42.502;26.526;2023-01-28T06:26:00;99290.63;;;4.00;100.00
20019;BME280;10170;42.502;26.526;2023-01-28T06:28:27;99280.19;;;3.84;100.00
20019;BME280;10170;42.502;26.526;2023-01-28T06:30:54;99301.66;;;3.95;100.00
20019;BME280;10170;42.502;26.526;2023-01-28T06:33:21;99296.44;;;3.87;100.00
20019;BME280;10170;42.502;26.526;2023-01-28T06:35:49;99275.06;;;3.52;100.00
20019;BME280;10170;42.502;26.526;2023-01-28T06:38:16;99307.59;;;3.89;100.00
20019;BME280;10170;42.502;26.526;2023-01-28T06:40:42;99312.19;;;3.95;100.00
20019;BME280;10170;42.502;26.526;2023-01-28T06:43:09;99313.97;;;4.03;100.00
20019;BME280;10170;42.502;26.526;2023-01-28T06:45:36;99306.38;;;4.08;100.00
20019;BME280;10170;42.502;26.526;2023-01-28T06:48:03;99311.53;;;4.24;100.00
20019;BME280;10170;42.502;26.526;2023-01-28T06:50:32;99307.31;;;4.15;100.00
20019;BME280;10170;42.502;26.526;2023-01-28T06:52:59;99314.03;;;4.17;100.00
20019;BME280;10170;42.502;26.526;2023-01-28T06:55:25;99317.91;;;4.29;100.00
20019;BME280;10170;42.502;26.526;2023-01-28T06:57:52;99311.81;;;4.29;100.00
20019;BME280;10170;42.502;26.526;2023-01-28T07:00:19;99304.06;;;4.36;100.00
20019;BME280;10170;42.502;26.526;2023-01-28T07:02:46;99322.97;;;4.39;100.00
20019;BME280;10170;42.502;26.526;2023-01-28T07:05:13;99320.53;;;4.29;100.00
20019;BME280;10170;42.502;26.526;2023-01-28T07:07:39;99337.78;;;4.32;100.00
20019;BME280;10170;42.502;26.526;2023-01-28T07:10:08;99340.91;;;4.36;100.00
20019;BME280;10170;42.502;26.526;2023-01-28T07:12:36;99347.44;;;4.40;100.00
20019;BME280;10170;42.502;26.526;2023-01-28T07:15:02;99344.50;;;4.43;100.00
20019;BME280;10170;42.502;26.526;2023-01-28T07:17:29;99336.75;;;4.41;100.00
20019;BME280;10170;42.502;26.526;2023-01-28T07:19:56;99342.84;;;4.42;100.00
20019;BME280;10170;42.502;26.526;2023-01-28T07:22:23;99344.13;;;4.46;100.00
20019;BME280;10170;42.502;26.526;2023-01-28T07:24:50;99341.44;;;4.54;100.00
20019;BME280;10170;42.502;26.526;2023-01-28T07:27:16;99345.56;;;4.48;100.00
20019;BME280;10170;42.502;26.526;2023-01-28T07:29:43;99345.53;;;4.56;100.00
20019;BME280;10170;42.502;26.526;2023-01-28T07:32:10;99346.75;;;4.46;100.00
20019;BME280;10170;42.502;26.526;2023-01-28T07:34:37;99326.56;;;4.15;100.00
20019;BME280;10170;42.502;26.526;2023-01-28T07:37:05;99359.19;;;4.29;100.00
20019;BME280;10170;42.502;26.526;2023-01-28T07:39:32;99291.53;;;3.84;100.00
20019;BME280;10170;42.502;26.526;2023-01-28T07:42:00;99369.53;;;4.30;100.00
20019;BME280;10170;42.502;26.526;2023-01-28T07:44:27;99376.28;;;4.33;100.00
20019;BME280;10170;42.502;26.526;2023-01-28T07:46:54;99361.53;;;4.47;100.00
20019;BME280;10170;42.502;26.526;2023-01-28T07:49:20;99376.72;;;4.67;100.00
20019;BME280;10170;42.502;26.526;2023-01-28T07:51:47;99375.72;;;4.68;100.00
20019;BME280;10170;42.502;26.526;2023-01-28T07:54:16;99388.13;;;4.82;100.00
20019;BME280;10170;42.502;26.526;2023-01-28T07:56:43;99371.84;;;4.79;100.00
20019;BME280;10170;42.502;26.526;2023-01-28T07:59:09;99385.47;;;4.68;100.00
20019;BME280;10170;42.502;26.526;2023-01-28T08:01:36;99384.06;;;4.80;100.00
20019;BME280;10170;42.502;26.526;2023-01-28T08:04:04;99387.84;;;5.00;100.00
20019;BME280;10170;42.502;26.526;2023-01-28T08:06:31;99382.16;;;4.88;100.00
20019;BME280;10170;42.502;26.526;2023-01-28T08:09:04;99388.72;;;4.92;100.00
20019;BME280;10170;42.502;26.526;2023-01-28T08:11:31;99389.75;;;5.06;100.00
20019;BME280;10170;42.502;26.526;2023-01-28T08:13:58;99399.31;;;5.07;100.00
20019;BME280;10170;42.502;26.526;2023-01-28T08:16:26;99395.91;;;4.98;100.00
20019;BME280;10170;42.502;26.526;2023-01-28T08:18:53;99413.56;;;4.98;100.00
20019;BME280;10170;42.502;26.526;2023-01-28T08:21:20;99421.31;;;4.91;100.00
20019;BME280;10170;42.502;26.526;2023-01-28T08:23:47;99415.81;;;5.01;100.00
20019;BME280;10170;42.502;26.526;2023-01-28T08:26:14;99417.97;;;5.20;100.00
20019;BME280;10170;42.502;26.526;2023-01-28T08:28:41;99416.13;;;5.06;100.00
20019;BME280;10170;42.502;26.526;2023-01-28T08:31:07;99422.44;;;4.97;100.00
20019;BME280;10170;42.502;26.526;2023-01-28T08:33:34;99425.53;;;5.00;100.00
20019;BME280;10170;42.502;26.526;2023-01-28T08:36:02;99414.88;;;5.16;100.00
20019;BME280;10170;42.502;26.526;2023-01-28T08:38:29;99406.97;;;5.39;100.00
20019;BME280;10170;42.502;26.526;2023-01-28T08:40:56;99427.66;;;5.79;100.00
20019;BME280;10170;42.502;26.526;2023-01-28T08:43:24;99425.59;;;5.89;100.00
20019;BME280;10170;42.502;26.526;2023-01-28T08:45:51;99427.50;;;5.95;100.00
20019;BME280;10170;42.502;26.526;2023-01-28T08:48:18;99419.44;;;5.97;100.00
20019;BME280;10170;42.502;26.526;2023-01-28T08:50:45;99427.16;;;5.61;100.00
20019;BME280;10170;42.502;26.526;2023-01-28T08:53:14;99434.38;;;5.67;100.00
20019;BME280;10170;42.502;26.526;2023-01-28T08:55:41;99406.31;;;5.37;100.00
20019;BME280;10170;42.502;26.526;2023-01-28T08:58:11;99436.94;;;5.38;100.00
20019;BME280;10170;42.502;26.526;2023-01-28T09:00:38;99434.56;;;5.28;100.00
20019;BME280;10170;42.502;26.526;2023-01-28T09:03:05;99435.53;;;5.50;100.00
20019;BME280;10170;42.502;26.526;2023-01-28T09:05:34;99436.03;;;5.68;100.00
20019;BME280;10170;42.502;26.526;2023-01-28T09:08:04;99426.59;;;5.88;100.00
20019;BME280;10170;42.502;26.526;2023-01-28T09:10:32;99418.06;;;5.49;100.00
20019;BME280;10170;42.502;26.526;2023-01-28T09:13:04;99432.31;;;5.40;100.00
20019;BME280;10170;42.502;26.526;2023-01-28T09:15:32;99424.47;;;5.69;100.00
20019;BME280;10170;42.502;26.526;2023-01-28T09:17:58;99420.41;;;5.96;100.00
20019;BME280;10170;42.502;26.526;2023-01-28T09:20:26;99426.34;;;6.12;100.00
20019;BME280;10170;42.502;26.526;2023-01-28T09:22:53;99426.66;;;5.80;100.00
20019;BME280;10170;42.502;26.526;2023-01-28T09:25:20;99408.41;;;5.42;100.00
20019;BME280;10170;42.502;26.526;2023-01-28T09:27:46;99420.97;;;5.54;100.00
20019;BME280;10170;42.502;26.526;2023-01-28T09:30:13;99390.88;;;5.63;100.00
20019;BME280;10170;42.502;26.526;2023-01-28T09:32:41;99418.69;;;5.88;100.00
20019;BME280;10170;42.502;26.526;2023-01-28T09:35:08;99403.81;;;5.73;100.00
20019;BME280;10170;42.502;26.526;2023-01-28T09:37:35;99424.16;;;6.01;100.00
20019;BME280;10170;42.502;26.526;2023-01-28T09:40:03;99426.22;;;6.35;100.00
20019;BME280;10170;42.502;26.526;2023-01-28T09:45:24;99410.75;;;5.88;100.00
20019;BME280;10170;42.502;26.526;2023-01-28T09:47:59;99432.06;;;6.01;100.00
20019;BME280;10170;42.502;26.526;2023-01-28T09:50:36;99418.03;;;6.15;100.00
20019;BME280;10170;42.502;26.526;2023-01-28T09:53:20;99432.00;;;6.09;100.00
20019;BME280;10170;42.502;26.526;2023-01-28T09:56:12;99434.63;;;5.72;100.00
20019;BME280;10170;42.502;26.526;2023-01-28T09:58:41;99437.72;;;5.61;100.00
20019;BME280;10170;42.502;26.526;2023-01-28T10:09:33;99428.09;;;5.68;100.00
20019;BME280;10170;42.502;26.526;2023-01-28T10:17:42;99439.13;;;5.86;100.00
20019;BME280;10170;42.502;26.526;2023-01-28T10:22:48;99440.69;;;5.95;100.00
20019;BME280;10170;42.502;26.526;2023-01-28T10:25:18;99425.94;;;5.86;100.00
20019;BME280;10170;42.502;26.526;2023-01-28T10:27:47;99441.16;;;5.84;100.00
20019;BME280;10170;42.502;26.526;2023-01-28T10:30:18;99434.34;;;6.19;100.00
20019;BME280;10170;42.502;26.526;2023-01-28T10:33:00;99436.81;;;6.56;100.00
20019;BME280;10170;42.502;26.526;2023-01-28T10:35:32;99438.31;;;6.44;100.00
20019;BME280;10170;42.502;26.526;2023-01-28T10:38:04;99437.00;;;6.55;100.00
20019;BME280;10170;42.502;26.526;2023-01-28T10:40:34;99447.56;;;6.69;100.00
20019;BME280;10170;42.502;26.526;2023-01-28T10:43:01;99442.16;;;6.27;100.00
20019;BME280;10170;42.502;26.526;2023-01-28T10:45:33;99438.56;;;6.49;100.00
20019;BME280;10170;42.502;26.526;2023-01-28T10:50:56;99452.34;;;6.45;100.00
20019;BME280;10170;42.502;26.526;2023-01-28T10:56:08;99451.44;;;6.23;100.00
20019;BME280;10170;42.502;26.526;2023-01-28T10:58:49;99446.25;;;5.86;100.00
20019;BME280;10170;42.502;26.526;2023-01-28T11:01:19;99453.81;;;5.89;100.00
20019;BME280;10170;42.502;26.526;2023-01-28T11:03:54;99449.16;;;5.91;100.00
20019;BME280;10170;42.502;26.526;2023-01-28T11:06:26;99456.19;;;5.98;100.00
20019;BME280;10170;42.502;26.526;2023-01-28T11:08:54;99453.44;;;6.06;100.00
20019;BME280;10170;42.502;26.526;2023-01-28T11:11:24;99453.00;;;6.32;100.00
20019;BME280;10170;42.502;26.526;2023-01-28T11:13:53;99455.50;;;6.40;100.00
20019;BME280;10170;42.502;26.526;2023-01-28T11:16:24;99461.16;;;6.08;100.00
20019;BME280;10170;42.502;26.526;2023-01-28T11:19:02;99457.44;;;6.02;100.00
20019;BME280;10170;42.502;26.526;2023-01-28T11:21:30;99463.75;;;6.30;100.00
20019;BME280;10170;42.502;26.526;2023-01-28T11:24:17;99460.72;;;6.19;100.00
20019;BME280;10170;42.502;26.526;2023-01-28T11:26:51;99468.06;;;6.53;100.00
20019;BME280;10170;42.502;26.526;2023-01-28T11:29:39;99473.53;;;6.51;100.00
20019;BME280;10170;42.502;26.526;2023-01-28T11:32:18;99468.16;;;6.59;100.00
20019;BME280;10170;42.502;26.526;2023-01-28T11:34:50;99426.41;;;5.90;100.00
20019;BME280;10170;42.502;26.526;2023-01-28T11:37:21;99465.19;;;5.89;100.00
20019;BME280;10170;42.502;26.526;2023-01-28T11:39:48;99480.53;;;5.63;100.00
20019;BME280;10170;42.502;26.526;2023-01-28T11:42:25;99476.00;;;5.34;100.00
20019;BME280;10170;42.502;26.526;2023-01-28T11:44:52;99480.78;;;5.39;100.00
20019;BME280;10170;42.502;26.526;2023-01-28T11:47:40;99481.34;;;5.49;100.00
20019;BME280;10170;42.502;26.526;2023-01-28T12:25:33;99482.47;;;5.32;100.00
20019;BME280;10170;42.502;26.526;2023-01-28T12:31:22;99485.22;;;5.38;100.00
20019;BME280;10170;42.502;26.526;2023-01-28T12:37:14;99487.94;;;5.30;100.00
20019;BME280;10170;42.502;26.526;2023-01-28T12:42:40;99484.75;;;5.72;100.00
20019;BME280;10170;42.502;26.526;2023-01-28T12:45:21;99496.41;;;6.00;100.00
20019;BME280;10170;42.502;26.526;2023-01-28T12:47:53;99492.59;;;5.80;100.00
20019;BME280;10170;42.502;26.526;2023-01-28T12:50:26;99504.00;;;5.81;100.00
20019;BME280;10170;42.502;26.526;2023-01-28T12:53:04;99489.56;;;5.69;100.00
20019;BME280;10170;42.502;26.526;2023-01-28T12:58:58;99499.59;;;5.73;100.00
20019;BME280;10170;42.502;26.526;2023-01-28T13:07:05;99502.97;;;5.45;100.00
20019;BME280;10170;42.502;26.526;2023-01-28T13:09:36;99523.00;;;5.54;100.00
20019;BME280;10170;42.502;26.526;2023-01-28T13:12:10;99514.72;;;5.57;100.00
20019;BME280;10170;42.502;26.526;2023-01-28T13:14:39;99526.28;;;5.56;100.00
20019;BME280;10170;42.502;26.526;2023-01-28T13:17:28;99518.38;;;5.56;100.00
20019;BME280;10170;42.502;26.526;2023-01-28T13:19:56;99530.66;;;5.63;100.00
20019;BME280;10170;42.502;26.526;2023-01-28T13:24:56;99513.78;;;5.27;100.00
20019;BME280;10170;42.502;26.526;2023-01-28T13:27:27;99546.41;;;5.49;100.00
20019;BME280;10170;42.502;26.526;2023-01-28T13:30:05;99554.28;;;5.34;100.00
20019;BME280;10170;42.502;26.526;2023-01-28T13:32:34;99556.06;;;5.11;100.00
20019;BME280;10170;42.502;26.526;2023-01-28T13:35:05;99569.34;;;4.87;100.00
20019;BME280;10170;42.502;26.526;2023-01-28T13:42:39;99543.09;;;4.71;100.00
20019;BME280;10170;42.502;26.526;2023-01-28T13:45:20;99569.09;;;5.04;100.00
20019;BME280;10170;42.502;26.526;2023-01-28T13:47:54;99576.00;;;5.36;100.00
20019;BME280;10170;42.502;26.526;2023-01-28T13:50:35;99574.94;;;5.45;100.00
20019;BME280;10170;42.502;26.526;2023-01-28T13:53:15;99575.38;;;5.57;100.00
20019;BME280;10170;42.502;26.526;2023-01-28T13:55:44;99578.97;;;5.41;100.00
20019;BME280;10170;42.502;26.526;2023-01-28T13:58:33;99570.88;;;5.43;100.00
20019;BME280;10170;42.502;26.526;2023-01-28T14:12:10;99572.47;;;5.52;100.00
20019;BME280;10170;42.502;26.526;2023-01-28T14:20:20;99588.38;;;5.58;100.00
20019;BME280;10170;42.502;26.526;2023-01-28T14:22:49;99588.72;;;5.32;100.00
20019;BME280;10170;42.502;26.526;2023-01-28T14:25:24;99577.25;;;5.48;100.00
20019;BME280;10170;42.502;26.526;2023-01-28T14:27:53;99587.00;;;5.17;100.00
20019;BME280;10170;42.502;26.526;2023-01-28T14:30:27;99602.84;;;5.09;100.00
20019;BME280;10170;42.502;26.526;2023-01-28T14:32:57;99598.91;;;5.05;100.00
20019;BME280;10170;42.502;26.526;2023-01-28T14:35:32;99598.09;;;5.35;100.00
20019;BME280;10170;42.502;26.526;2023-01-28T14:38:06;99602.50;;;5.43;100.00
20019;BME280;10170;42.502;26.526;2023-01-28T14:40:37;99609.00;;;5.55;100.00
20019;BME280;10170;42.502;26.526;2023-01-28T14:43:14;99609.88;;;5.47;100.00
20019;BME280;10170;42.502;26.526;2023-01-28T14:56:51;99616.59;;;4.96;100.00
20019;BME280;10170;42.502;26.526;2023-01-28T14:59:28;99627.00;;;4.82;100.00
20019;BME280;10170;42.502;26.526;2023-01-28T15:01:58;99625.50;;;4.87;100.00
20019;BME280;10170;42.502;26.526;2023-01-28T15:04:28;99634.19;;;4.96;100.00
20019;BME280;10170;42.502;26.526;2023-01-28T15:07:00;99631.75;;;4.86;100.00
20019;BME280;10170;42.502;26.526;2023-01-28T15:09:27;99627.34;;;4.71;100.00
20019;BME280;10170;42.502;26.526;2023-01-28T15:11:55;99636.22;;;4.70;100.00
20019;BME280;10170;42.502;26.526;2023-01-28T15:14:30;99639.88;;;4.69;100.00
20019;BME280;10170;42.502;26.526;2023-01-28T15:16:58;99638.06;;;4.69;100.00
20019;BME280;10170;42.502;26.526;2023-01-28T15:19:29;99646.28;;;4.74;100.00